createdAt,value
2018-06-11T00:01:28.258Z,78.20
2018-06-11T00:03:56.434Z,78.10
2018-06-11T00:06:24.614Z,78.70
2018-06-11T00:08:52.758Z,78.90
2018-06-11T00:11:20.923Z,79.40
2018-06-11T00:13:49.093Z,78.80
2018-06-11T00:16:17.402Z,79.00
2018-06-11T00:18:45.572Z,79.10
2018-06-11T00:21:13.774Z,79.00
2018-06-11T00:23:41.946Z,79.50
2018-06-11T00:26:10.113Z,79.30
2018-06-11T00:28:38.282Z,79.30
2018-06-11T00:31:06.438Z,79.80
2018-06-11T00:33:34.604Z,79.90
2018-06-11T00:36:02.803Z,79.70
2018-06-11T00:38:30.974Z,78.90
2018-06-11T00:40:59.146Z,79.40
2018-06-11T00:43:27.297Z,79.60
2018-06-11T00:45:56.304Z,79.50
2018-06-11T00:48:24.501Z,79.90
2018-06-11T00:50:52.672Z,79.00
2018-06-11T00:53:20.829Z,79.10
2018-06-11T00:56:00.386Z,79.90
2018-06-11T00:58:28.546Z,79.50
2018-06-11T01:00:56.702Z,79.50
2018-06-11T01:03:24.978Z,79.10
2018-06-11T01:05:53.182Z,79.40
2018-06-11T01:08:21.353Z,80.00
2018-06-11T01:10:49.537Z,79.90
2018-06-11T01:13:17.720Z,80.30
2018-06-11T01:15:45.881Z,80.30
2018-06-11T01:18:14.046Z,80.40
2018-06-11T01:20:42.222Z,80.60
2018-06-11T01:23:10.376Z,80.60
2018-06-11T01:25:38.553Z,81.00
2018-06-11T01:28:06.741Z,81.70
2018-06-11T01:30:34.941Z,82.00
2018-06-11T01:33:03.121Z,81.80
2018-06-11T01:35:31.289Z,82.00
2018-06-11T01:37:59.485Z,82.00
2018-06-11T01:40:27.676Z,81.60
2018-06-11T01:42:55.842Z,81.10
2018-06-11T01:45:24.018Z,81.60
2018-06-11T01:50:20.114Z,81.90
2018-06-11T01:52:48.320Z,82.10
2018-06-11T01:55:16.485Z,82.60
2018-06-11T01:57:44.686Z,82.40
2018-06-11T02:00:12.862Z,81.50
2018-06-11T02:02:41.048Z,81.90
2018-06-11T02:05:09.230Z,81.60
2018-06-11T02:07:37.443Z,82.30
2018-06-11T02:10:05.610Z,82.20
2018-06-11T02:12:33.785Z,82.10
2018-06-11T02:15:01.957Z,81.80
2018-06-11T02:17:30.121Z,82.00
2018-06-11T02:19:58.289Z,82.00
2018-06-11T02:22:26.483Z,82.40
2018-06-11T02:24:54.709Z,82.90
2018-06-11T02:27:22.941Z,82.50
2018-06-11T02:29:51.199Z,82.30
2018-06-11T02:32:19.354Z,81.90
2018-06-11T02:34:47.521Z,81.40
2018-06-11T02:37:15.685Z,81.60
2018-06-11T02:39:43.873Z,81.40
2018-06-11T02:42:12.094Z,82.30
2018-06-11T02:44:40.278Z,82.20
2018-06-11T02:47:08.436Z,81.90
2018-06-11T02:49:36.610Z,81.80
2018-06-11T02:52:04.800Z,82.30
2018-06-11T02:54:32.987Z,81.50
2018-06-11T02:57:01.181Z,81.90
2018-06-11T02:59:29.402Z,82.60
2018-06-11T03:01:57.563Z,81.60
2018-06-11T03:04:25.781Z,81.50
2018-06-11T03:06:53.954Z,81.30
2018-06-11T03:09:22.090Z,81.80
2018-06-11T03:11:50.302Z,80.90
2018-06-11T03:14:18.470Z,81.40
2018-06-11T03:16:46.680Z,81.70
2018-06-11T03:19:14.834Z,82.20
2018-06-11T03:21:42.982Z,81.20
2018-06-11T03:24:11.194Z,81.20
2018-06-11T03:26:39.360Z,81.50
2018-06-11T03:29:07.538Z,81.60
2018-06-11T03:31:35.702Z,81.70
2018-06-11T03:34:03.893Z,81.20
2018-06-11T03:36:32.060Z,80.80
2018-06-11T03:39:00.225Z,80.80
2018-06-11T03:41:28.392Z,80.60
2018-06-11T03:43:56.569Z,80.80
2018-06-11T03:46:24.862Z,81.10
2018-06-11T03:48:53.050Z,81.00
2018-06-11T03:53:49.194Z,80.00
2018-06-11T03:56:17.357Z,80.30
2018-06-11T03:58:45.558Z,79.90
2018-06-11T04:01:13.714Z,80.60
2018-06-11T04:03:41.894Z,80.00
2018-06-11T04:06:10.423Z,80.40
2018-06-11T04:08:38.586Z,79.50
2018-06-11T04:11:06.848Z,79.20
2018-06-11T04:13:34.925Z,79.80
2018-06-11T04:16:03.195Z,79.90
2018-06-11T04:18:31.345Z,80.30
2018-06-11T04:20:59.521Z,80.00
2018-06-11T04:23:27.691Z,79.20
2018-06-11T04:25:55.854Z,80.00
2018-06-11T04:28:24.020Z,78.70
2018-06-11T04:30:52.184Z,79.70
2018-06-11T04:33:20.362Z,79.10
2018-06-11T04:35:48.502Z,79.30
2018-06-11T04:38:16.653Z,79.40
2018-06-11T04:40:44.813Z,78.60
2018-06-11T04:43:13.014Z,78.30
2018-06-11T04:45:41.191Z,78.60
2018-06-11T04:48:09.353Z,78.60
2018-06-11T04:50:37.542Z,79.10
2018-06-11T04:53:06.587Z,78.50
2018-06-11T04:55:35.434Z,78.40
2018-06-11T04:58:03.866Z,79.10
2018-06-11T05:00:32.046Z,79.90
2018-06-11T05:03:00.186Z,79.40
2018-06-11T05:05:28.362Z,79.50
2018-06-11T05:07:56.509Z,79.20
2018-06-11T05:10:24.659Z,78.90
2018-06-11T05:15:20.827Z,78.50
2018-06-11T05:17:48.981Z,78.70
2018-06-11T05:20:17.146Z,79.00
2018-06-11T05:22:45.323Z,79.10
2018-06-11T05:25:13.587Z,78.60
2018-06-11T05:27:41.725Z,78.80
2018-06-11T05:30:09.919Z,78.30
2018-06-11T05:32:38.093Z,78.20
2018-06-11T05:35:06.329Z,77.80
2018-06-11T05:37:34.483Z,77.10
2018-06-11T05:40:02.679Z,77.80
2018-06-11T05:42:30.845Z,78.10
2018-06-11T05:44:59.111Z,78.20
2018-06-11T05:47:27.278Z,78.30
2018-06-11T05:49:55.491Z,78.80
2018-06-11T05:52:23.662Z,78.80
2018-06-11T05:54:51.848Z,78.20
2018-06-11T05:57:20.055Z,78.40
2018-06-11T05:59:48.306Z,78.60
2018-06-11T06:02:16.598Z,78.40
2018-06-11T06:04:44.782Z,79.20
2018-06-11T06:07:14.106Z,78.20
2018-06-11T06:09:42.460Z,77.80
2018-06-11T06:12:10.618Z,78.30
2018-06-11T06:14:38.787Z,78.10
2018-06-11T06:17:06.987Z,77.70
2018-06-11T06:19:35.436Z,78.20
2018-06-11T06:22:03.665Z,79.10
2018-06-11T06:24:31.878Z,78.40
2018-06-11T06:27:00.049Z,78.70
2018-06-11T06:29:28.269Z,78.50
2018-06-11T06:31:56.429Z,77.30
2018-06-11T06:34:24.703Z,78.60
2018-06-11T06:36:52.802Z,77.70
2018-06-11T06:39:20.984Z,77.90
2018-06-11T06:41:49.230Z,78.10
2018-06-11T06:44:17.405Z,77.20
2018-06-11T06:46:45.606Z,77.40
2018-06-11T06:51:41.720Z,77.40
2018-06-11T06:54:09.948Z,78.00
2018-06-11T06:56:38.203Z,77.00
2018-06-11T06:59:06.361Z,77.90
2018-06-11T07:01:34.528Z,78.10
2018-06-11T07:04:02.949Z,77.30
2018-06-11T07:06:31.141Z,76.30
2018-06-11T07:08:59.338Z,76.10
2018-06-11T07:11:27.538Z,76.20
2018-06-11T07:13:55.746Z,76.10
2018-06-11T07:16:23.939Z,76.20
2018-06-11T07:18:52.138Z,77.10
2018-06-11T07:21:20.316Z,76.20
2018-06-11T07:23:48.487Z,76.30
2018-06-11T07:26:16.698Z,77.20
2018-06-11T07:28:44.869Z,75.80
2018-06-11T07:31:13.061Z,77.60
2018-06-11T07:33:41.206Z,75.20
2018-06-11T07:36:09.367Z,76.20
2018-06-11T07:38:37.547Z,75.50
2018-06-11T07:41:05.747Z,73.90
2018-06-11T07:43:33.960Z,74.00
2018-06-11T07:46:02.141Z,73.10
2018-06-11T07:48:30.312Z,74.20
2018-06-11T07:50:58.457Z,74.20
2018-06-11T07:53:26.620Z,74.60
2018-06-11T07:55:54.790Z,74.20
2018-06-11T07:58:23.009Z,74.30
2018-06-11T08:00:51.246Z,75.20
2018-06-11T08:05:47.389Z,74.40
2018-06-11T08:08:16.733Z,75.40
2018-06-11T08:10:44.907Z,74.70
2018-06-11T08:13:13.091Z,75.60
2018-06-11T08:15:41.297Z,75.30
2018-06-11T08:18:09.479Z,73.80
2018-06-11T08:20:37.634Z,74.30
2018-06-11T08:23:06.026Z,73.80
2018-06-11T08:25:34.219Z,73.80
2018-06-11T08:28:02.418Z,74.00
2018-06-11T08:30:30.570Z,74.20
2018-06-11T08:32:58.771Z,75.30
2018-06-11T08:35:26.960Z,75.10
2018-06-11T08:37:55.136Z,73.50
2018-06-11T08:40:23.303Z,72.40
2018-06-11T08:42:51.482Z,72.20
2018-06-11T08:45:19.750Z,73.40
2018-06-11T08:47:47.917Z,72.40
2018-06-11T08:50:16.111Z,74.00
2018-06-11T08:52:44.270Z,71.70
2018-06-11T08:55:12.429Z,70.70
2018-06-11T08:57:40.654Z,71.80
2018-06-11T09:00:08.891Z,70.80
2018-06-11T09:02:37.042Z,71.80
2018-06-11T09:05:05.568Z,71.10
2018-06-11T09:07:33.754Z,70.00
2018-06-11T09:10:02.042Z,70.60
2018-06-11T09:12:30.274Z,68.70
2018-06-11T09:14:58.394Z,71.50
2018-06-11T09:17:26.633Z,69.30
2018-06-11T09:19:54.824Z,71.40
2018-06-11T09:22:23.213Z,67.40
2018-06-11T09:24:51.449Z,68.60
2018-06-11T09:27:19.618Z,69.20
2018-06-11T09:29:47.818Z,69.60
2018-06-11T09:32:16.277Z,67.70
2018-06-11T09:34:44.477Z,68.60
2018-06-11T09:37:12.643Z,69.50
2018-06-11T09:39:40.814Z,68.20
2018-06-11T09:42:08.962Z,68.70
2018-06-11T09:44:37.126Z,69.10
2018-06-11T09:47:05.366Z,68.00
2018-06-11T09:49:33.626Z,68.00
2018-06-11T09:52:01.814Z,67.00
2018-06-11T09:54:30.261Z,66.10
2018-06-11T09:56:58.454Z,67.40
2018-06-11T09:59:26.757Z,67.30
2018-06-11T10:01:54.946Z,64.90
2018-06-11T10:04:23.134Z,66.90
2018-06-11T10:06:51.331Z,64.40
2018-06-11T10:09:19.510Z,63.90
2018-06-11T10:11:47.670Z,61.10
2018-06-11T10:14:15.863Z,64.40
2018-06-11T10:16:44.030Z,64.50
2018-06-11T10:19:12.215Z,64.80
2018-06-11T10:21:40.413Z,64.10
2018-06-11T10:24:08.612Z,62.30
2018-06-11T10:26:36.815Z,65.10
2018-06-11T10:29:04.989Z,62.90
2018-06-11T10:31:33.353Z,61.90
2018-06-11T10:34:01.529Z,62.90
2018-06-11T10:36:33.022Z,62.40
2018-06-11T10:39:01.222Z,60.50
2018-06-11T10:41:29.431Z,61.00
2018-06-11T10:43:57.614Z,61.80
2018-06-11T10:46:25.802Z,61.70
2018-06-11T10:48:53.994Z,63.50
2018-06-11T10:51:22.166Z,62.00
2018-06-11T10:53:50.470Z,63.00
2018-06-11T10:56:18.714Z,63.10
2018-06-11T10:58:46.928Z,60.30
2018-06-11T11:01:15.111Z,59.20
2018-06-11T11:03:43.389Z,60.00
2018-06-11T11:06:11.595Z,59.80
2018-06-11T11:08:39.765Z,60.70
2018-06-11T11:11:07.958Z,61.50
2018-06-11T11:13:36.123Z,58.70
2018-06-11T11:16:04.530Z,58.70
2018-06-11T11:18:32.701Z,58.80
2018-06-11T11:21:00.879Z,57.20
2018-06-11T11:23:29.034Z,56.80
2018-06-11T11:25:57.229Z,56.90
2018-06-11T11:28:25.416Z,57.40
2018-06-11T11:30:53.603Z,58.60
2018-06-11T11:33:21.965Z,57.50
2018-06-11T11:35:50.114Z,55.90
2018-06-11T11:38:18.271Z,54.30
2018-06-11T11:40:46.422Z,54.90
2018-06-11T11:43:14.613Z,54.80
2018-06-11T11:45:42.774Z,54.60
2018-06-11T11:48:10.971Z,53.90
2018-06-11T11:50:39.139Z,55.00
2018-06-11T11:53:07.277Z,56.90
2018-06-11T11:55:35.438Z,56.20
2018-06-11T11:58:03.609Z,58.50
2018-06-11T12:00:31.786Z,56.60
2018-06-11T12:03:00.050Z,56.80
2018-06-11T12:05:28.667Z,56.10
2018-06-11T12:07:56.938Z,56.60
2018-06-11T12:10:25.206Z,55.00
2018-06-11T12:12:53.411Z,55.40
2018-06-11T12:15:22.593Z,54.00
2018-06-11T12:17:50.758Z,54.00
2018-06-11T12:20:18.934Z,53.40
2018-06-11T12:22:47.116Z,53.10
2018-06-11T12:25:15.304Z,53.70
2018-06-11T12:27:43.487Z,53.40
2018-06-11T12:30:11.740Z,54.70
2018-06-11T12:32:39.881Z,51.40
2018-06-11T12:35:08.078Z,51.40
2018-06-11T12:37:37.496Z,51.00
2018-06-11T12:40:05.875Z,51.30
2018-06-11T12:42:35.369Z,52.00
2018-06-11T12:45:03.635Z,50.50
2018-06-11T12:47:33.322Z,50.60
2018-06-11T12:50:01.655Z,51.20
2018-06-11T12:52:29.885Z,50.70
2018-06-11T12:54:58.056Z,49.50
2018-06-11T12:57:26.250Z,50.80
2018-06-11T12:59:54.457Z,51.20
2018-06-11T13:02:22.625Z,49.50
2018-06-11T13:04:51.001Z,48.50
2018-06-11T13:07:19.169Z,49.70
2018-06-11T13:09:47.353Z,50.60
2018-06-11T13:12:15.546Z,50.10
2018-06-11T13:14:43.785Z,50.10
2018-06-11T13:17:11.934Z,47.30
2018-06-11T13:19:40.110Z,48.00
2018-06-11T13:22:08.385Z,46.80
2018-06-11T13:24:36.583Z,47.90
2018-06-11T13:27:04.788Z,49.00
2018-06-11T13:29:32.954Z,49.00
2018-06-11T13:32:01.154Z,49.70
2018-06-11T13:34:29.366Z,47.80
2018-06-11T13:36:57.614Z,46.50
2018-06-11T13:39:25.790Z,47.40
2018-06-11T13:41:53.986Z,48.60
2018-06-11T13:44:22.206Z,48.20
2018-06-11T13:46:50.500Z,48.60
2018-06-11T13:49:18.654Z,48.20
2018-06-11T13:51:46.831Z,49.20
2018-06-11T13:54:15.030Z,47.90
2018-06-11T13:56:43.338Z,47.90
2018-06-11T14:01:40.414Z,48.50
2018-06-11T14:04:08.570Z,48.70
2018-06-11T14:09:07.230Z,48.40
2018-06-11T14:11:35.603Z,47.90
2018-06-11T14:14:03.728Z,49.00
2018-06-11T14:16:31.890Z,48.00
2018-06-11T14:19:00.086Z,48.30
2018-06-11T14:21:28.249Z,50.00
2018-06-11T14:23:56.494Z,48.50
2018-06-11T14:26:24.684Z,49.30
2018-06-11T14:28:52.850Z,47.90
2018-06-11T14:31:21.002Z,47.20
2018-06-11T14:33:49.210Z,47.90
2018-06-11T14:36:21.854Z,47.50
2018-06-11T14:38:55.392Z,48.50
2018-06-11T14:41:23.816Z,48.50
2018-06-11T14:43:57.750Z,47.50
2018-06-11T14:46:26.326Z,49.50
2018-06-11T14:48:54.574Z,47.20
2018-06-11T14:51:25.434Z,48.90
2018-06-11T14:53:53.805Z,49.10
2018-06-11T14:56:22.701Z,49.30
2018-06-11T14:58:50.884Z,49.90
2018-06-11T15:01:19.277Z,49.20
2018-06-11T15:03:50.171Z,50.50
2018-06-11T15:06:19.724Z,50.00
2018-06-11T15:08:48.972Z,50.80
2018-06-11T15:11:17.179Z,51.00
2018-06-11T15:13:45.370Z,50.90
2018-06-11T15:16:13.875Z,51.50
2018-06-11T15:18:42.090Z,51.70
2018-06-11T15:21:10.330Z,52.30
2018-06-11T15:23:38.840Z,51.30
2018-06-11T15:26:07.135Z,51.70
2018-06-11T15:28:37.632Z,52.50
2018-06-11T15:31:07.251Z,51.70
2018-06-11T15:33:36.059Z,52.10
2018-06-11T15:36:04.746Z,52.70
2018-06-11T15:38:37.182Z,51.80
2018-06-11T15:41:05.504Z,52.40
2018-06-11T15:43:33.822Z,51.30
2018-06-11T15:46:02.042Z,52.40
2018-06-11T15:48:33.755Z,51.10
2018-06-11T15:51:02.038Z,51.50
2018-06-11T15:53:30.273Z,53.00
2018-06-11T15:55:58.609Z,51.60
2018-06-11T15:58:26.782Z,52.60
2018-06-11T16:00:55.098Z,51.80
2018-06-11T16:03:23.481Z,52.20
2018-06-11T16:05:51.698Z,53.40
2018-06-11T16:08:20.003Z,52.20
2018-06-11T16:10:49.302Z,52.40
2018-06-11T16:13:18.570Z,53.30
2018-06-11T16:15:46.859Z,53.30
2018-06-11T16:18:15.109Z,53.20
2018-06-11T16:20:43.561Z,53.00
2018-06-11T16:23:12.818Z,53.00
2018-06-11T16:25:43.272Z,53.10
2018-06-11T16:28:11.644Z,52.70
2018-06-11T16:30:39.753Z,53.50
2018-06-11T16:33:07.977Z,52.60
2018-06-11T16:35:36.189Z,53.90
2018-06-11T16:38:04.476Z,53.90
2018-06-11T16:40:32.625Z,53.00
2018-06-11T16:43:00.877Z,52.50
2018-06-11T16:45:29.035Z,52.70
2018-06-11T16:47:57.231Z,52.40
2018-06-11T16:50:25.716Z,52.70
2018-06-11T16:52:54.176Z,53.20
2018-06-11T16:55:22.365Z,53.40
2018-06-11T16:57:50.582Z,52.50
2018-06-11T17:00:18.946Z,51.80
2018-06-11T17:02:50.886Z,52.70
2018-06-11T17:05:19.118Z,53.20
2018-06-11T17:07:48.226Z,52.60
2018-06-11T17:10:16.503Z,53.40
2018-06-11T17:12:44.684Z,52.90
2018-06-11T17:15:12.907Z,53.00
2018-06-11T17:17:41.147Z,53.20
2018-06-11T17:20:16.105Z,53.90
2018-06-11T17:22:44.349Z,52.20
2018-06-11T17:25:12.836Z,52.70
2018-06-11T17:27:41.034Z,53.00
2018-06-11T17:37:38.942Z,53.60
2018-06-11T17:42:42.176Z,53.10
2018-06-11T17:47:45.407Z,53.60
2018-06-11T17:52:48.632Z,53.60
2018-06-11T17:57:51.872Z,54.40
2018-06-11T18:02:55.077Z,53.90
2018-06-11T18:07:58.701Z,54.20
2018-06-11T18:13:01.910Z,55.10
2018-06-11T18:18:05.112Z,54.10
2018-06-11T18:23:08.278Z,54.00
2018-06-11T18:28:11.583Z,54.30
2018-06-11T18:33:14.790Z,54.80
2018-06-11T18:38:17.958Z,54.50
2018-06-11T18:43:21.165Z,54.50
2018-06-11T18:48:24.411Z,55.00
2018-06-11T18:53:27.611Z,55.00
2018-06-11T18:58:30.806Z,55.60
2018-06-11T19:03:33.975Z,55.60
2018-06-11T19:08:37.194Z,56.80
2018-06-11T19:18:43.579Z,57.70
2018-06-11T19:23:46.844Z,58.00
2018-06-11T19:28:50.145Z,57.70
2018-06-11T19:33:53.373Z,57.70
2018-06-11T19:38:57.687Z,58.50
2018-06-11T19:44:00.854Z,58.30
2018-06-11T19:49:04.050Z,59.30
2018-06-11T19:54:07.273Z,59.60
2018-06-11T19:59:10.437Z,59.70
2018-06-11T20:04:13.601Z,59.50
2018-06-11T20:09:16.844Z,60.70
2018-06-11T20:14:19.968Z,60.50
2018-06-11T20:19:23.241Z,61.20
2018-06-11T20:24:29.532Z,61.30
2018-06-11T20:29:32.698Z,61.40
2018-06-11T20:34:35.865Z,60.70
2018-06-11T20:39:39.071Z,60.50
2018-06-11T20:44:42.318Z,59.80
2018-06-11T20:49:45.507Z,60.90
2018-06-11T20:54:48.686Z,61.00
2018-06-11T20:59:56.399Z,61.70
2018-06-11T21:04:59.562Z,61.30
2018-06-11T21:10:02.765Z,60.80
2018-06-11T21:15:06.041Z,60.70
2018-06-11T21:20:09.194Z,61.50
2018-06-11T21:25:12.374Z,60.50
2018-06-11T21:30:15.541Z,61.40
2018-06-11T21:35:18.786Z,60.50
2018-06-11T21:40:21.969Z,60.50
2018-06-11T21:45:25.191Z,60.90
2018-06-11T21:50:28.344Z,60.70
2018-06-11T21:55:31.526Z,61.20
2018-06-11T22:00:34.764Z,62.70
2018-06-11T22:05:37.985Z,64.10
2018-06-11T22:10:41.134Z,64.70
2018-06-11T22:15:44.342Z,66.40
2018-06-11T22:20:47.534Z,66.50
2018-06-11T22:25:50.742Z,67.40
2018-06-11T22:30:53.952Z,67.80
2018-06-11T22:35:57.182Z,68.40
2018-06-11T22:41:00.366Z,69.20
2018-06-11T22:46:03.928Z,70.00
2018-06-11T22:51:07.091Z,70.80
2018-06-11T22:56:10.342Z,70.30
2018-06-11T23:01:13.521Z,70.80
2018-06-11T23:06:16.719Z,72.40
2018-06-11T23:11:21.017Z,72.30
2018-06-11T23:16:24.217Z,72.60
2018-06-11T23:21:27.458Z,72.60
2018-06-11T23:26:30.728Z,72.40
2018-06-11T23:31:34.899Z,72.60
2018-06-11T23:36:38.137Z,72.90
2018-06-11T23:41:41.305Z,73.00
2018-06-11T23:46:44.598Z,73.20
2018-06-11T23:51:47.762Z,73.10
2018-06-11T23:56:50.997Z,74.40
